sensor_id;sensor_type;location;lat;lon;timestamp;pressure;altitude;pressure_sealevel;temperature;humidity
61039;BME280;46919;45.816;3.104;2023-02-11T00:00:08;99878.91;;;-4.47;77.09
61039;BME280;46919;45.816;3.104;2023-02-11T00:02:34;99883.56;;;-4.52;77.77
61039;BME280;46919;45.816;3.104;2023-02-11T00:05:00;99885.38;;;-4.53;77.45
61039;BME280;46919;45.816;3.104;2023-02-11T00:07:30;99887.25;;;-4.55;77.29
61039;BME280;46919;45.816;3.104;2023-02-11T00:09:56;99880.56;;;-4.62;78.84
61039;BME280;46919;45.816;3.104;2023-02-11T00:12:21;99883.88;;;-4.59;77.48
61039;BME280;46919;45.816;3.104;2023-02-11T00:14:47;99880.31;;;-4.58;76.94
61039;BME280;46919;45.816;3.104;2023-02-11T00:17:13;99871.72;;;-4.61;77.34
61039;BME280;46919;45.816;3.104;2023-02-11T00:19:38;99875.97;;;-4.59;77.51
61039;BME280;46919;45.816;3.104;2023-02-11T00:22:04;99877.09;;;-4.63;77.83
61039;BME280;46919;45.816;3.104;2023-02-11T00:24:30;99879.94;;;-4.67;77.77
61039;BME280;46919;45.816;3.104;2023-02-11T00:26:55;99873.03;;;-4.70;77.37
61039;BME280;46919;45.816;3.104;2023-02-11T00:29:20;99865.44;;;-4.76;78.09
61039;BME280;46919;45.816;3.104;2023-02-11T00:31:46;99868.38;;;-4.82;78.23
61039;BME280;46919;45.816;3.104;2023-02-11T00:34:12;99872.91;;;-4.84;77.57
61039;BME280;46919;45.816;3.104;2023-02-11T00:36:37;99871.97;;;-4.83;77.67
61039;BME280;46919;45.816;3.104;2023-02-11T00:39:03;99873.19;;;-4.91;78.62
61039;BME280;46919;45.816;3.104;2023-02-11T00:41:28;99869.66;;;-4.89;79.02
61039;BME280;46919;45.816;3.104;2023-02-11T00:43:54;99867.84;;;-4.89;78.91
61039;BME280;46919;45.816;3.104;2023-02-11T00:46:20;99868.53;;;-4.85;78.57
61039;BME280;46919;45.816;3.104;2023-02-11T00:48:45;99863.53;;;-4.90;78.77
61039;BME280;46919;45.816;3.104;2023-02-11T00:51:11;99862.13;;;-4.97;79.27
61039;BME280;46919;45.816;3.104;2023-02-11T00:53:37;99857.84;;;-5.00;78.80
61039;BME280;46919;45.816;3.104;2023-02-11T00:56:03;99851.03;;;-5.04;78.71
61039;BME280;46919;45.816;3.104;2023-02-11T00:58:28;99852.88;;;-5.06;78.43
61039;BME280;46919;45.816;3.104;2023-02-11T01:00:55;99848.69;;;-5.10;79.36
61039;BME280;46919;45.816;3.104;2023-02-11T01:03:20;99844.28;;;-5.10;79.60
61039;BME280;46919;45.816;3.104;2023-02-11T01:05:46;99848.94;;;-5.15;79.99
61039;BME280;46919;45.816;3.104;2023-02-11T01:08:12;99845.59;;;-5.18;80.29
61039;BME280;46919;45.816;3.104;2023-02-11T01:10:37;99841.25;;;-5.19;80.08
61039;BME280;46919;45.816;3.104;2023-02-11T01:13:03;99829.31;;;-5.26;80.42
61039;BME280;46919;45.816;3.104;2023-02-11T01:15:28;99816.28;;;-5.30;80.00
61039;BME280;46919;45.816;3.104;2023-02-11T01:17:54;99829.63;;;-5.33;80.30
61039;BME280;46919;45.816;3.104;2023-02-11T01:20:24;99825.34;;;-5.35;80.25
61039;BME280;46919;45.816;3.104;2023-02-11T01:22:49;99816.59;;;-5.36;79.37
61039;BME280;46919;45.816;3.104;2023-02-11T01:25:15;99808.84;;;-5.39;79.43
61039;BME280;46919;45.816;3.104;2023-02-11T01:27:40;99813.16;;;-5.38;80.66
61039;BME280;46919;45.816;3.104;2023-02-11T01:30:07;99808.69;;;-5.36;80.04
61039;BME280;46919;45.816;3.104;2023-02-11T01:32:33;99807.75;;;-5.35;79.86
61039;BME280;46919;45.816;3.104;2023-02-11T01:34:59;99812.47;;;-5.41;81.22
61039;BME280;46919;45.816;3.104;2023-02-11T01:37:25;99814.50;;;-5.47;80.92
61039;BME280;46919;45.816;3.104;2023-02-11T01:39:51;99808.31;;;-5.46;80.08
61039;BME280;46919;45.816;3.104;2023-02-11T01:42:19;99810.84;;;-5.44;80.37
61039;BME280;46919;45.816;3.104;2023-02-11T01:44:48;99805.56;;;-5.44;80.64
61039;BME280;46919;45.816;3.104;2023-02-11T01:47:15;99804.19;;;-5.51;81.02
61039;BME280;46919;45.816;3.104;2023-02-11T01:49:48;99800.94;;;-5.56;80.84
61039;BME280;46919;45.816;3.104;2023-02-11T01:52:32;99792.44;;;-5.63;80.72
61039;BME280;46919;45.816;3.104;2023-02-11T01:55:04;99782.00;;;-5.65;82.05
61039;BME280;46919;45.816;3.104;2023-02-11T01:57:55;99783.56;;;-5.60;81.12
61039;BME280;46919;45.816;3.104;2023-02-11T02:00:24;99783.69;;;-5.64;81.25
61039;BME280;46919;45.816;3.104;2023-02-11T02:08:02;99784.00;;;-5.70;80.17
61039;BME280;46919;45.816;3.104;2023-02-11T02:10:30;99782.47;;;-5.74;81.87
61039;BME280;46919;45.816;3.104;2023-02-11T02:12:58;99785.72;;;-5.69;80.98
61039;BME280;46919;45.816;3.104;2023-02-11T02:32:21;99754.00;;;-5.85;83.12
61039;BME280;46919;45.816;3.104;2023-02-11T02:35:13;99754.84;;;-5.84;81.53
61039;BME280;46919;45.816;3.104;2023-02-11T02:37:49;99750.69;;;-5.88;83.35
61039;BME280;46919;45.816;3.104;2023-02-11T02:40:20;99747.13;;;-5.70;81.58
61039;BME280;46919;45.816;3.104;2023-02-11T02:42:48;99743.50;;;-5.67;81.76
61039;BME280;46919;45.816;3.104;2023-02-11T02:45:14;99755.69;;;-5.65;82.19
61039;BME280;46919;45.816;3.104;2023-02-11T02:47:39;99748.16;;;-5.72;81.87
61039;BME280;46919;45.816;3.104;2023-02-11T02:50:06;99744.03;;;-5.78;82.02
61039;BME280;46919;45.816;3.104;2023-02-11T02:52:46;99743.47;;;-5.85;82.66
61039;BME280;46919;45.816;3.104;2023-02-11T02:58:29;99725.34;;;-5.91;82.43
61039;BME280;46919;45.816;3.104;2023-02-11T03:01:11;99724.28;;;-5.87;81.49
61039;BME280;46919;45.816;3.104;2023-02-11T03:03:48;99727.75;;;-5.86;82.00
61039;BME280;46919;45.816;3.104;2023-02-11T03:09:19;99730.31;;;-6.02;82.96
61039;BME280;46919;45.816;3.104;2023-02-11T03:11:46;99725.06;;;-6.02;83.05
61039;BME280;46919;45.816;3.104;2023-02-11T03:14:14;99722.63;;;-6.07;82.77
61039;BME280;46919;45.816;3.104;2023-02-11T03:16:42;99729.84;;;-6.10;83.71
61039;BME280;46919;45.816;3.104;2023-02-11T03:19:13;99722.94;;;-6.13;82.78
61039;BME280;46919;45.816;3.104;2023-02-11T03:21:40;99725.94;;;-6.21;84.05
61039;BME280;46919;45.816;3.104;2023-02-11T03:24:12;99726.88;;;-6.22;83.16
61039;BME280;46919;45.816;3.104;2023-02-11T03:26:46;99729.50;;;-6.22;83.51
61039;BME280;46919;45.816;3.104;2023-02-11T03:29:17;99729.19;;;-6.15;83.44
61039;BME280;46919;45.816;3.104;2023-02-11T03:31:57;99722.09;;;-6.13;83.31
61039;BME280;46919;45.816;3.104;2023-02-11T03:34:48;99722.44;;;-6.21;83.38
61039;BME280;46919;45.816;3.104;2023-02-11T03:37:20;99720.25;;;-6.30;84.16
61039;BME280;46919;45.816;3.104;2023-02-11T03:39:50;99723.72;;;-6.30;83.72
61039;BME280;46919;45.816;3.104;2023-02-11T03:42:18;99730.78;;;-6.30;83.73
61039;BME280;46919;45.816;3.104;2023-02-11T03:44:48;99724.97;;;-6.37;83.37
61039;BME280;46919;45.816;3.104;2023-02-11T03:47:20;99727.81;;;-6.42;84.38
61039;BME280;46919;45.816;3.104;2023-02-11T03:49:49;99719.63;;;-6.35;82.45
61039;BME280;46919;45.816;3.104;2023-02-11T03:52:18;99714.41;;;-6.18;82.41
61039;BME280;46919;45.816;3.104;2023-02-11T03:54:46;99705.13;;;-6.08;81.43
61039;BME280;46919;45.816;3.104;2023-02-11T03:57:13;99712.03;;;-6.05;82.42
61039;BME280;46919;45.816;3.104;2023-02-11T03:59:56;99711.19;;;-6.06;83.33
61039;BME280;46919;45.816;3.104;2023-02-11T04:02:22;99706.91;;;-6.08;84.60
61039;BME280;46919;45.816;3.104;2023-02-11T04:04:49;99704.66;;;-6.16;83.26
61039;BME280;46919;45.816;3.104;2023-02-11T04:07:14;99696.13;;;-6.21;84.02
61039;BME280;46919;45.816;3.104;2023-02-11T04:09:40;99690.66;;;-6.16;83.10
61039;BME280;46919;45.816;3.104;2023-02-11T04:12:06;99694.06;;;-6.14;84.47
61039;BME280;46919;45.816;3.104;2023-02-11T04:14:31;99696.69;;;-6.14;83.22
61039;BME280;46919;45.816;3.104;2023-02-11T04:16:57;99691.66;;;-6.19;84.08
61039;BME280;46919;45.816;3.104;2023-02-11T04:19:22;99698.91;;;-6.24;83.72
61039;BME280;46919;45.816;3.104;2023-02-11T04:21:47;99697.06;;;-6.22;83.20
61039;BME280;46919;45.816;3.104;2023-02-11T04:24:13;99699.69;;;-6.22;83.26
61039;BME280;46919;45.816;3.104;2023-02-11T04:26:38;99703.47;;;-6.28;84.71
61039;BME280;46919;45.816;3.104;2023-02-11T04:29:03;99698.28;;;-6.29;84.18
61039;BME280;46919;45.816;3.104;2023-02-11T04:31:29;99704.41;;;-6.29;84.56
61039;BME280;46919;45.816;3.104;2023-02-11T04:33:55;99704.63;;;-6.33;85.45
61039;BME280;46919;45.816;3.104;2023-02-11T04:36:21;99706.34;;;-6.32;85.57
61039;BME280;46919;45.816;3.104;2023-02-11T04:38:46;99704.47;;;-6.30;83.66
61039;BME280;46919;45.816;3.104;2023-02-11T04:41:11;99699.97;;;-6.28;84.05
61039;BME280;46919;45.816;3.104;2023-02-11T04:43:37;99713.28;;;-6.31;84.16
61039;BME280;46919;45.816;3.104;2023-02-11T04:46:02;99711.75;;;-6.35;84.88
61039;BME280;46919;45.816;3.104;2023-02-11T04:48:28;99705.19;;;-6.46;85.20
61039;BME280;46919;45.816;3.104;2023-02-11T04:50:53;99701.66;;;-6.45;86.86
61039;BME280;46919;45.816;3.104;2023-02-11T04:53:19;99698.50;;;-6.34;85.50
61039;BME280;46919;45.816;3.104;2023-02-11T04:55:47;99698.78;;;-6.40;85.31
61039;BME280;46919;45.816;3.104;2023-02-11T04:58:13;99698.38;;;-6.50;84.57
61039;BME280;46919;45.816;3.104;2023-02-11T05:00:38;99689.56;;;-6.49;84.19
61039;BME280;46919;45.816;3.104;2023-02-11T05:03:04;99689.84;;;-6.55;84.59
61039;BME280;46919;45.816;3.104;2023-02-11T05:05:29;99692.47;;;-6.55;84.32
61039;BME280;46919;45.816;3.104;2023-02-11T05:07:55;99693.97;;;-6.49;85.22
61039;BME280;46919;45.816;3.104;2023-02-11T05:10:21;99700.34;;;-6.55;85.22
61039;BME280;46919;45.816;3.104;2023-02-11T05:12:47;99694.47;;;-6.60;85.57
61039;BME280;46919;45.816;3.104;2023-02-11T05:15:13;99684.75;;;-6.58;85.11
61039;BME280;46919;45.816;3.104;2023-02-11T05:17:38;99684.75;;;-6.58;86.53
61039;BME280;46919;45.816;3.104;2023-02-11T05:20:04;99679.31;;;-6.55;86.12
61039;BME280;46919;45.816;3.104;2023-02-11T05:22:30;99665.47;;;-6.59;85.51
61039;BME280;46919;45.816;3.104;2023-02-11T05:24:55;99668.03;;;-6.57;84.66
61039;BME280;46919;45.816;3.104;2023-02-11T05:27:20;99674.06;;;-6.55;83.99
61039;BME280;46919;45.816;3.104;2023-02-11T05:29:46;99672.59;;;-6.61;85.37
61039;BME280;46919;45.816;3.104;2023-02-11T05:32:11;99671.38;;;-6.72;86.94
61039;BME280;46919;45.816;3.104;2023-02-11T05:34:36;99663.53;;;-6.74;86.88
61039;BME280;46919;45.816;3.104;2023-02-11T05:37:02;99666.09;;;-6.72;87.17
61039;BME280;46919;45.816;3.104;2023-02-11T05:39:27;99665.97;;;-6.69;85.73
61039;BME280;46919;45.816;3.104;2023-02-11T05:41:53;99677.72;;;-6.77;85.42
61039;BME280;46919;45.816;3.104;2023-02-11T05:44:18;99672.53;;;-6.78;86.15
61039;BME280;46919;45.816;3.104;2023-02-11T05:46:44;99674.13;;;-6.76;86.16
61039;BME280;46919;45.816;3.104;2023-02-11T05:49:09;99674.94;;;-6.74;85.99
61039;BME280;46919;45.816;3.104;2023-02-11T05:51:35;99677.72;;;-6.77;85.26
61039;BME280;46919;45.816;3.104;2023-02-11T05:54:00;99674.44;;;-6.82;85.17
61039;BME280;46919;45.816;3.104;2023-02-11T05:56:26;99662.44;;;-6.87;85.08
61039;BME280;46919;45.816;3.104;2023-02-11T05:58:51;99672.94;;;-6.87;85.50
61039;BME280;46919;45.816;3.104;2023-02-11T06:01:17;99674.78;;;-6.89;85.95
61039;BME280;46919;45.816;3.104;2023-02-11T06:03:43;99674.31;;;-6.98;86.51
61039;BME280;46919;45.816;3.104;2023-02-11T06:06:10;99674.31;;;-6.98;86.20
61039;BME280;46919;45.816;3.104;2023-02-11T06:08:36;99676.06;;;-6.98;86.85
61039;BME280;46919;45.816;3.104;2023-02-11T06:11:02;99667.25;;;-6.97;86.76
61039;BME280;46919;45.816;3.104;2023-02-11T06:13:27;99672.38;;;-6.94;86.43
61039;BME280;46919;45.816;3.104;2023-02-11T06:15:57;99673.63;;;-7.03;86.73
61039;BME280;46919;45.816;3.104;2023-02-11T06:18:22;99671.22;;;-7.07;86.82
61039;BME280;46919;45.816;3.104;2023-02-11T06:20:48;99673.91;;;-7.09;86.86
61039;BME280;46919;45.816;3.104;2023-02-11T06:23:13;99657.16;;;-7.06;86.76
61039;BME280;46919;45.816;3.104;2023-02-11T06:25:39;99656.94;;;-7.02;85.97
61039;BME280;46919;45.816;3.104;2023-02-11T06:28:04;99655.66;;;-6.93;85.19
61039;BME280;46919;45.816;3.104;2023-02-11T06:30:30;99668.38;;;-6.84;84.94
61039;BME280;46919;45.816;3.104;2023-02-11T06:32:55;99658.88;;;-6.86;85.17
61039;BME280;46919;45.816;3.104;2023-02-11T06:35:20;99661.88;;;-6.94;85.68
61039;BME280;46919;45.816;3.104;2023-02-11T06:37:46;99664.41;;;-6.93;84.82
61039;BME280;46919;45.816;3.104;2023-02-11T06:40:13;99658.00;;;-6.87;86.00
61039;BME280;46919;45.816;3.104;2023-02-11T06:42:39;99656.41;;;-6.89;85.81
61039;BME280;46919;45.816;3.104;2023-02-11T06:45:06;99665.41;;;-6.95;87.06
61039;BME280;46919;45.816;3.104;2023-02-11T06:47:33;99657.78;;;-7.01;86.73
61039;BME280;46919;45.816;3.104;2023-02-11T06:49:59;99657.66;;;-6.98;86.31
61039;BME280;46919;45.816;3.104;2023-02-11T06:52:24;99660.28;;;-6.98;85.93
61039;BME280;46919;45.816;3.104;2023-02-11T06:54:50;99661.50;;;-7.05;86.21
61039;BME280;46919;45.816;3.104;2023-02-11T06:57:15;99665.03;;;-7.06;86.88
61039;BME280;46919;45.816;3.104;2023-02-11T06:59:40;99669.38;;;-7.05;86.18
61039;BME280;46919;45.816;3.104;2023-02-11T07:02:08;99683.44;;;-7.06;85.98
61039;BME280;46919;45.816;3.104;2023-02-11T07:04:34;99685.28;;;-7.08;85.44
61039;BME280;46919;45.816;3.104;2023-02-11T07:06:59;99681.94;;;-6.93;85.46
61039;BME280;46919;45.816;3.104;2023-02-11T07:09:24;99677.56;;;-6.93;86.02
61039;BME280;46919;45.816;3.104;2023-02-11T07:11:50;99683.72;;;-6.94;86.23
61039;BME280;46919;45.816;3.104;2023-02-11T07:14:15;99680.19;;;-6.93;85.48
61039;BME280;46919;45.816;3.104;2023-02-11T07:16:41;99689.84;;;-6.93;86.06
61039;BME280;46919;45.816;3.104;2023-02-11T07:19:06;99690.00;;;-6.96;86.25
61039;BME280;46919;45.816;3.104;2023-02-11T07:21:32;99682.81;;;-6.93;86.82
61039;BME280;46919;45.816;3.104;2023-02-11T07:23:57;99681.03;;;-6.92;86.06
61039;BME280;46919;45.816;3.104;2023-02-11T07:26:23;99690.50;;;-6.88;86.26
61039;BME280;46919;45.816;3.104;2023-02-11T07:28:50;99684.28;;;-6.87;86.53
61039;BME280;46919;45.816;3.104;2023-02-11T07:31:22;99694.53;;;-6.81;86.15
61039;BME280;46919;45.816;3.104;2023-02-11T07:33:48;99703.22;;;-6.79;85.76
61039;BME280;46919;45.816;3.104;2023-02-11T07:36:15;99705.47;;;-6.71;86.46
61039;BME280;46919;45.816;3.104;2023-02-11T07:38:41;99708.56;;;-6.61;86.63
61039;BME280;46919;45.816;3.104;2023-02-11T07:41:09;99724.69;;;-6.50;87.04
61039;BME280;46919;45.816;3.104;2023-02-11T07:43:36;99720.97;;;-6.46;86.83
61039;BME280;46919;45.816;3.104;2023-02-11T07:46:08;99730.16;;;-6.35;86.59
61039;BME280;46919;45.816;3.104;2023-02-11T07:48:34;99729.06;;;-6.31;86.72
61039;BME280;46919;45.816;3.104;2023-02-11T07:51:21;99730.34;;;-6.21;85.53
61039;BME280;46919;45.816;3.104;2023-02-11T07:53:47;99723.63;;;-5.92;84.31
61039;BME280;46919;45.816;3.104;2023-02-11T07:56:14;99721.16;;;-5.60;83.91
61039;BME280;46919;45.816;3.104;2023-02-11T07:58:40;99731.47;;;-5.38;83.99
61039;BME280;46919;45.816;3.104;2023-02-11T08:01:11;99729.94;;;-5.24;83.62
61039;BME280;46919;45.816;3.104;2023-02-11T08:03:38;99741.81;;;-5.00;82.88
61039;BME280;46919;45.816;3.104;2023-02-11T08:06:13;99738.69;;;-4.91;82.68
61039;BME280;46919;45.816;3.104;2023-02-11T08:08:40;99749.16;;;-4.89;83.27
61039;BME280;46919;45.816;3.104;2023-02-11T08:11:14;99748.31;;;-4.89;83.41
61039;BME280;46919;45.816;3.104;2023-02-11T08:13:40;99755.84;;;-4.82;83.68
61039;BME280;46919;45.816;3.104;2023-02-11T08:16:07;99751.44;;;-4.65;83.09
61039;BME280;46919;45.816;3.104;2023-02-11T08:18:34;99746.50;;;-4.56;82.96
61039;BME280;46919;45.816;3.104;2023-02-11T08:21:04;99759.56;;;-4.37;82.64
61039;BME280;46919;45.816;3.104;2023-02-11T08:23:30;99753.88;;;-4.29;82.58
61039;BME280;46919;45.816;3.104;2023-02-11T08:26:00;99758.56;;;-4.18;82.26
61039;BME280;46919;45.816;3.104;2023-02-11T08:28:26;99750.22;;;-4.10;81.71
61039;BME280;46919;45.816;3.104;2023-02-11T08:30:51;99755.47;;;-3.94;81.38
61039;BME280;46919;45.816;3.104;2023-02-11T08:33:17;99755.81;;;-3.85;81.43
61039;BME280;46919;45.816;3.104;2023-02-11T08:35:42;99755.47;;;-3.78;81.25
61039;BME280;46919;45.816;3.104;2023-02-11T08:38:07;99759.78;;;-3.61;80.59
61039;BME280;46919;45.816;3.104;2023-02-11T08:40:33;99753.09;;;-3.53;80.52
61039;BME280;46919;45.816;3.104;2023-02-11T08:42:59;99761.25;;;-3.41;80.38
61039;BME280;46919;45.816;3.104;2023-02-11T08:45:24;99762.25;;;-3.28;80.54
61039;BME280;46919;45.816;3.104;2023-02-11T08:47:51;99755.63;;;-3.21;80.24
61039;BME280;46919;45.816;3.104;2023-02-11T08:50:16;99766.50;;;-3.11;80.15
61039;BME280;46919;45.816;3.104;2023-02-11T08:52:42;99753.78;;;-3.04;80.04
61039;BME280;46919;45.816;3.104;2023-02-11T08:55:08;99759.47;;;-2.96;79.66
61039;BME280;46919;45.816;3.104;2023-02-11T08:57:34;99763.06;;;-2.83;79.50
61039;BME280;46919;45.816;3.104;2023-02-11T08:59:59;99752.28;;;-2.65;78.92
61039;BME280;46919;45.816;3.104;2023-02-11T09:02:25;99745.69;;;-2.58;79.00
61039;BME280;46919;45.816;3.104;2023-02-11T09:04:51;99746.78;;;-2.48;79.00
61039;BME280;46919;45.816;3.104;2023-02-11T09:07:16;99748.78;;;-2.37;78.76
61039;BME280;46919;45.816;3.104;2023-02-11T09:09:42;99743.66;;;-2.26;77.79
61039;BME280;46919;45.816;3.104;2023-02-11T09:12:07;99734.28;;;-2.17;78.02
61039;BME280;46919;45.816;3.104;2023-02-11T09:14:33;99739.94;;;-2.09;77.74
61039;BME280;46919;45.816;3.104;2023-02-11T09:16:58;99739.44;;;-2.01;77.75
61039;BME280;46919;45.816;3.104;2023-02-11T09:19:24;99735.22;;;-1.91;77.64
61039;BME280;46919;45.816;3.104;2023-02-11T09:21:49;99736.84;;;-1.88;77.29
61039;BME280;46919;45.816;3.104;2023-02-11T09:24:15;99736.78;;;-1.74;77.43
61039;BME280;46919;45.816;3.104;2023-02-11T09:26:41;99730.88;;;-1.65;76.64
61039;BME280;46919;45.816;3.104;2023-02-11T09:29:07;99733.66;;;-1.53;75.97
61039;BME280;46919;45.816;3.104;2023-02-11T09:31:34;99734.94;;;-1.46;76.52
61039;BME280;46919;45.816;3.104;2023-02-11T09:34:02;99734.53;;;-1.40;76.13
61039;BME280;46919;45.816;3.104;2023-02-11T09:36:31;99730.31;;;-1.30;75.49
61039;BME280;46919;45.816;3.104;2023-02-11T09:38:58;99731.59;;;-1.22;75.33
61039;BME280;46919;45.816;3.104;2023-02-11T09:43:56;99734.50;;;-1.00;74.81
61039;BME280;46919;45.816;3.104;2023-02-11T09:46:22;99737.56;;;-0.93;74.48
61039;BME280;46919;45.816;3.104;2023-02-11T09:48:51;99731.94;;;-0.88;74.04
61039;BME280;46919;45.816;3.104;2023-02-11T09:51:24;99744.59;;;-0.79;73.76
61039;BME280;46919;45.816;3.104;2023-02-11T09:53:57;99741.72;;;-0.63;73.66
61039;BME280;46919;45.816;3.104;2023-02-11T09:56:27;99735.19;;;-0.46;73.11
61039;BME280;46919;45.816;3.104;2023-02-11T09:58:53;99745.56;;;-0.30;72.54
61039;BME280;46919;45.816;3.104;2023-02-11T10:01:38;99739.56;;;-0.08;71.66
61039;BME280;46919;45.816;3.104;2023-02-11T10:07:21;99753.78;;;0.04;70.77
61039;BME280;46919;45.816;3.104;2023-02-11T10:12:30;99744.41;;;0.35;70.21
61039;BME280;46919;45.816;3.104;2023-02-11T10:18:32;99739.16;;;0.58;68.90
61039;BME280;46919;45.816;3.104;2023-02-11T10:23:44;99750.56;;;0.71;68.08
61039;BME280;46919;45.816;3.104;2023-02-11T10:26:14;99749.16;;;0.78;68.00
61039;BME280;46919;45.816;3.104;2023-02-11T10:28:46;99754.75;;;0.86;67.54
61039;BME280;46919;45.816;3.104;2023-02-11T10:31:26;99744.88;;;1.11;67.44
61039;BME280;46919;45.816;3.104;2023-02-11T10:34:00;99745.63;;;1.24;67.02
61039;BME280;46919;45.816;3.104;2023-02-11T10:36:33;99740.28;;;1.47;66.43
61039;BME280;46919;45.816;3.104;2023-02-11T10:39:01;99746.59;;;1.69;66.21
61039;BME280;46919;45.816;3.104;2023-02-11T10:41:36;99742.97;;;1.81;65.80
61039;BME280;46919;45.816;3.104;2023-02-11T10:44:06;99735.19;;;1.89;65.75
61039;BME280;46919;45.816;3.104;2023-02-11T10:46:35;99727.91;;;1.91;64.83
61039;BME280;46919;45.816;3.104;2023-02-11T10:49:02;99718.91;;;2.04;65.29
61039;BME280;46919;45.816;3.104;2023-02-11T10:51:28;99709.88;;;2.27;64.03
61039;BME280;46919;45.816;3.104;2023-02-11T10:56:40;99707.94;;;2.50;63.75
61039;BME280;46919;45.816;3.104;2023-02-11T10:59:53;99705.13;;;2.63;63.60
61039;BME280;46919;45.816;3.104;2023-02-11T11:02:35;99703.47;;;2.72;62.85
61039;BME280;46919;45.816;3.104;2023-02-11T11:05:16;99707.72;;;2.96;63.21
61039;BME280;46919;45.816;3.104;2023-02-11T11:07:53;99705.53;;;3.11;62.33
61039;BME280;46919;45.816;3.104;2023-02-11T11:10:29;99696.34;;;3.24;61.95
61039;BME280;46919;45.816;3.104;2023-02-11T11:12:55;99692.59;;;3.37;62.06
61039;BME280;46919;45.816;3.104;2023-02-11T11:15:23;99693.75;;;3.44;61.52
61039;BME280;46919;45.816;3.104;2023-02-11T11:17:50;99693.38;;;3.58;60.79
61039;BME280;46919;45.816;3.104;2023-02-11T11:20:27;99686.91;;;3.61;60.06
61039;BME280;46919;45.816;3.104;2023-02-11T11:23:17;99680.47;;;3.63;58.44
61039;BME280;46919;45.816;3.104;2023-02-11T11:25:56;99673.28;;;3.74;59.04
61039;BME280;46919;45.816;3.104;2023-02-11T11:28:25;99670.63;;;3.84;59.18
61039;BME280;46919;45.816;3.104;2023-02-11T11:30:53;99665.19;;;3.95;58.62
61039;BME280;46919;45.816;3.104;2023-02-11T11:33:27;99667.00;;;4.04;58.65
61039;BME280;46919;45.816;3.104;2023-02-11T11:35:58;99660.81;;;4.13;58.12
61039;BME280;46919;45.816;3.104;2023-02-11T11:38:26;99657.44;;;4.31;57.67
61039;BME280;46919;45.816;3.104;2023-02-11T11:41:18;99653.78;;;4.51;56.24
61039;BME280;46919;45.816;3.104;2023-02-11T11:44:14;99655.31;;;4.64;55.58
61039;BME280;46919;45.816;3.104;2023-02-11T11:46:42;99650.03;;;4.92;55.55
61039;BME280;46919;45.816;3.104;2023-02-11T11:49:27;99645.47;;;5.12;54.13
61039;BME280;46919;45.816;3.104;2023-02-11T11:55:25;99644.78;;;5.37;54.15
61039;BME280;46919;45.816;3.104;2023-02-11T11:57:49;99628.78;;;5.55;54.89
61039;BME280;46919;45.816;3.104;2023-02-11T12:00:23;99626.34;;;5.62;54.23
61039;BME280;46919;45.816;3.104;2023-02-11T12:03:15;99634.03;;;5.75;52.84
61039;BME280;46919;45.816;3.104;2023-02-11T12:06:06;99617.94;;;5.93;53.19
61039;BME280;46919;45.816;3.104;2023-02-11T12:12:02;99617.34;;;5.99;52.05
61039;BME280;46919;45.816;3.104;2023-02-11T12:14:51;99626.25;;;6.18;52.81
61039;BME280;46919;45.816;3.104;2023-02-11T12:31:30;99598.84;;;8.21;53.28
61039;BME280;46919;45.816;3.104;2023-02-11T12:37:32;99601.03;;;8.75;50.32
61039;BME280;46919;45.816;3.104;2023-02-11T12:40:28;99584.28;;;9.04;43.02
61039;BME280;46919;45.816;3.104;2023-02-11T12:46:02;99572.44;;;9.21;49.63
61039;BME280;46919;45.816;3.104;2023-02-11T12:51:34;99564.56;;;10.06;48.29
61039;BME280;46919;45.816;3.104;2023-02-11T12:56:58;99556.56;;;10.88;47.65
61039;BME280;46919;45.816;3.104;2023-02-11T12:59:39;99550.88;;;10.98;43.98
61039;BME280;46919;45.816;3.104;2023-02-11T13:02:15;99552.06;;;11.40;44.92
61039;BME280;46919;45.816;3.104;2023-02-11T13:04:47;99541.13;;;11.70;44.47
61039;BME280;46919;45.816;3.104;2023-02-11T13:07:20;99542.19;;;11.91;43.25
61039;BME280;46919;45.816;3.104;2023-02-11T13:09:53;99539.22;;;12.01;43.45
61039;BME280;46919;45.816;3.104;2023-02-11T13:12:22;99529.50;;;11.91;43.46
61039;BME280;46919;45.816;3.104;2023-02-11T13:15:12;99533.84;;;12.07;43.26
61039;BME280;46919;45.816;3.104;2023-02-11T13:17:45;99525.72;;;12.07;41.92
61039;BME280;46919;45.816;3.104;2023-02-11T13:23:33;99520.50;;;11.69;40.90
61039;BME280;46919;45.816;3.104;2023-02-11T13:29:00;99515.22;;;10.65;39.20
61039;BME280;46919;45.816;3.104;2023-02-11T13:31:33;99517.66;;;10.22;41.83
61039;BME280;46919;45.816;3.104;2023-02-11T13:33:58;99514.69;;;10.31;41.92
61039;BME280;46919;45.816;3.104;2023-02-11T13:36:26;99508.28;;;10.32;41.06
61039;BME280;46919;45.816;3.104;2023-02-11T13:38:56;99501.25;;;10.23;40.84
61039;BME280;46919;45.816;3.104;2023-02-11T13:41:34;99495.25;;;10.13;40.81
61039;BME280;46919;45.816;3.104;2023-02-11T13:46:50;99493.28;;;10.07;39.75
61039;BME280;46919;45.816;3.104;2023-02-11T13:52:00;99478.66;;;9.78;39.26
61039;BME280;46919;45.816;3.104;2023-02-11T13:54:36;99475.22;;;9.61;39.34
61039;BME280;46919;45.816;3.104;2023-02-11T13:59:57;99458.28;;;9.52;38.18
61039;BME280;46919;45.816;3.104;2023-02-11T14:02:29;99460.50;;;9.49;38.55
61039;BME280;46919;45.816;3.104;2023-02-11T14:13:36;99462.94;;;9.58;37.67
61039;BME280;46919;45.816;3.104;2023-02-11T14:16:22;99459.97;;;9.53;38.17
61039;BME280;46919;45.816;3.104;2023-02-11T14:23:42;99451.78;;;9.38;37.56
61039;BME280;46919;45.816;3.104;2023-02-11T14:28:43;99443.75;;;9.53;37.13
61039;BME280;46919;45.816;3.104;2023-02-11T14:31:13;99451.72;;;9.47;37.11
61039;BME280;46919;45.816;3.104;2023-02-11T14:34:13;99437.69;;;9.51;36.20
61039;BME280;46919;45.816;3.104;2023-02-11T14:36:56;99436.81;;;9.36;37.16
61039;BME280;46919;45.816;3.104;2023-02-11T14:39:40;99440.22;;;9.30;37.55
61039;BME280;46919;45.816;3.104;2023-02-11T14:42:16;99436.13;;;9.34;37.02
61039;BME280;46919;45.816;3.104;2023-02-11T14:44:44;99439.16;;;9.39;37.34
61039;BME280;46919;45.816;3.104;2023-02-11T14:47:17;99434.50;;;9.48;36.89
61039;BME280;46919;45.816;3.104;2023-02-11T14:49:44;99429.34;;;9.61;37.09
61039;BME280;46919;45.816;3.104;2023-02-11T14:54:44;99431.81;;;9.71;37.47
61039;BME280;46919;45.816;3.104;2023-02-11T14:57:18;99435.06;;;9.66;36.71
61039;BME280;46919;45.816;3.104;2023-02-11T14:59:58;99431.50;;;9.66;36.66
61039;BME280;46919;45.816;3.104;2023-02-11T15:02:35;99429.59;;;9.74;36.32
61039;BME280;46919;45.816;3.104;2023-02-11T15:07:44;99425.19;;;9.73;35.94